Time;durP1;ratioP1;P1;durP2;ratioP2;P2;SDS_P1;SDS_P2;PMS_P1;PMS_P2;Temp;Humidity;BMP_temperature;BMP_pressure;BME280_temperature;BME280_humidity;BME280_pressure;Samples;Min_cycle;Max_cycle;Signal;HPM_P1;HPM_P2
2021/07/30 00:00:16;;;;;;;16.88;9.77;;;;;;;;;;10259841;28;20089;-60
2021/07/30 00:05:14;;;;;;;17.55;9.57;;;;;;;;;;10262373;28;20080;-60
2021/07/30 00:10:12;;;;;;;20.98;8.60;;;;;;;;;;10261023;28;20475;-60
2021/07/30 00:15:11;;;;;;;23.50;8.75;;;;;;;;;;10262728;28;20072;-60
2021/07/30 00:20:11;;;;;;;14.32;8.10;;;;;;;;;;10260909;28;20048;-60
2021/07/30 00:25:10;;;;;;;12.70;7.93;;;;;;;;;;10259849;28;20076;-61
2021/07/30 00:30:09;;;;;;;24.98;8.30;;;;;;;;;;10261163;28;20088;-60
2021/07/30 00:35:07;;;;;;;17.85;8.88;;;;;;;;;;10259022;28;20045;-58
2021/07/30 00:40:08;;;;;;;22.10;8.32;;;;;;;;;;10260628;28;20050;-60
2021/07/30 00:45:07;;;;;;;23.42;8.60;;;;;;;;;;10259275;28;20076;-59
2021/07/30 00:50:05;;;;;;;21.20;8.80;;;;;;;;;;10261038;28;20077;-60
2021/07/30 00:55:04;;;;;;;16.05;7.65;;;;;;;;;;10257935;28;20049;-60
2021/07/30 01:00:04;;;;;;;19.85;10.02;;;;;;;;;;10260019;28;20079;-59
2021/07/30 01:05:03;;;;;;;21.85;9.82;;;;;;;;;;10258742;28;20528;-58
2021/07/30 01:10:02;;;;;;;23.92;10.95;;;;;;;;;;10259081;28;20117;-59
2021/07/30 01:15:01;;;;;;;27.00;11.20;;;;;;;;;;10259085;28;20037;-60
2021/07/30 01:20:00;;;;;;;22.80;10.85;;;;;;;;;;10258697;28;20511;-59
2021/07/30 01:25:00;;;;;;;24.88;10.95;;;;;;;;;;10258451;28;20076;-60
2021/07/30 01:29:58;;;;;;;24.33;11.50;;;;;;;;;;10257736;28;20071;-60
2021/07/30 01:34:57;;;;;;;27.20;10.90;;;;;;;;;;10258542;28;20036;-60
2021/07/30 01:39:55;;;;;;;22.35;11.30;;;;;;;;;;10256719;28;20052;-60
2021/07/30 01:44:55;;;;;;;21.20;11.88;;;;;;;;;;10259022;28;20084;-60
2021/07/30 01:49:53;;;;;;;27.55;11.75;;;;;;;;;;10256108;28;20520;-60
2021/07/30 01:54:51;;;;;;;28.38;11.00;;;;;;;;;;10256386;28;20091;-60
2021/07/30 01:59:50;;;;;;;22.02;12.73;;;;;;;;;;10257858;28;20053;-60
2021/07/30 02:04:49;;;;;;;23.30;13.55;;;;;;;;;;10255331;28;20075;-60
2021/07/30 02:09:48;;;;;;;21.50;11.13;;;;;;;;;;10257052;28;20414;-60
2021/07/30 02:14:46;;;;;;;18.45;11.93;;;;;;;;;;10255887;28;20033;-60
2021/07/30 02:19:44;;;;;;;23.92;12.90;;;;;;;;;;10256226;28;20038;-58
2021/07/30 02:24:44;;;;;;;18.58;12.35;;;;;;;;;;10254985;28;20516;-60
2021/07/30 02:29:42;;;;;;;20.85;11.73;;;;;;;;;;10256542;28;20076;-58
2021/07/30 02:34:41;;;;;;;22.52;11.93;;;;;;;;;;10254934;28;20041;-59
2021/07/30 02:39:39;;;;;;;24.08;14.05;;;;;;;;;;10254902;28;20092;-58
2021/07/30 02:44:39;;;;;;;23.45;12.63;;;;;;;;;;10255565;28;20087;-60
2021/07/30 02:49:37;;;;;;;26.40;12.80;;;;;;;;;;10254711;28;20072;-60
2021/07/30 02:54:36;;;;;;;19.77;11.43;;;;;;;;;;10255508;28;20060;-58
2021/07/30 02:59:34;;;;;;;29.38;12.85;;;;;;;;;;10254435;28;20183;-60
2021/07/30 03:04:34;;;;;;;23.60;12.50;;;;;;;;;;10255564;28;20565;-59
2021/07/30 03:09:33;;;;;;;29.10;13.23;;;;;;;;;;10251562;28;20041;-60
2021/07/30 03:14:32;;;;;;;20.73;11.73;;;;;;;;;;10253227;28;20079;-59
2021/07/30 03:19:30;;;;;;;20.27;12.07;;;;;;;;;;10252200;28;20462;-59
2021/07/30 03:24:28;;;;;;;23.45;13.40;;;;;;;;;;10251116;28;20085;-59
2021/07/30 03:29:28;;;;;;;22.25;12.90;;;;;;;;;;10256261;28;20069;-61
2021/07/30 03:34:27;;;;;;;15.98;12.23;;;;;;;;;;10256691;28;20078;-59
2021/07/30 03:39:26;;;;;;;18.65;11.32;;;;;;;;;;10249768;28;20065;-59
2021/07/30 03:44:24;;;;;;;22.55;11.82;;;;;;;;;;10251438;28;20069;-60
2021/07/30 03:49:24;;;;;;;17.50;11.10;;;;;;;;;;10252544;28;20073;-60
2021/07/30 03:54:22;;;;;;;22.35;12.05;;;;;;;;;;10252360;28;20072;-60
2021/07/30 03:59:20;;;;;;;28.63;11.77;;;;;;;;;;10254699;28;20041;-59
2021/07/30 04:04:18;;;;;;;24.73;12.73;;;;;;;;;;10254062;28;20075;-59
2021/07/30 04:09:18;;;;;;;18.35;10.30;;;;;;;;;;10254101;28;20044;-60
2021/07/30 04:14:17;;;;;;;21.00;11.57;;;;;;;;;;10254182;28;20065;-59
2021/07/30 04:19:15;;;;;;;26.38;10.52;;;;;;;;;;10253942;28;20037;-59
2021/07/30 04:24:13;;;;;;;16.65;9.57;;;;;;;;;;10252323;28;20056;-59
2021/07/30 04:29:13;;;;;;;18.63;10.13;;;;;;;;;;10255933;28;20513;-59
2021/07/30 04:34:11;;;;;;;18.30;10.32;;;;;;;;;;10261837;28;20068;-59
2021/07/30 04:39:10;;;;;;;17.80;10.27;;;;;;;;;;10259431;28;20053;-59
2021/07/30 04:44:08;;;;;;;17.88;10.15;;;;;;;;;;10260131;28;20080;-59
2021/07/30 04:49:08;;;;;;;17.88;9.20;;;;;;;;;;10257847;28;20065;-59
2021/07/30 04:54:06;;;;;;;17.25;9.75;;;;;;;;;;10257989;28;20495;-59
2021/07/30 04:59:05;;;;;;;19.17;9.75;;;;;;;;;;10261258;28;20151;-59
2021/07/30 05:04:05;;;;;;;19.80;10.45;;;;;;;;;;10259219;28;20045;-60
2021/07/30 05:09:05;;;;;;;20.27;9.68;;;;;;;;;;10260501;28;20090;-60
2021/07/30 05:14:04;;;;;;;22.85;9.95;;;;;;;;;;10257756;28;20076;-59
2021/07/30 05:19:02;;;;;;;17.50;9.48;;;;;;;;;;10260220;28;20080;-58
2021/07/30 05:24:00;;;;;;;22.13;10.23;;;;;;;;;;10256594;28;20056;-60
2021/07/30 05:29:00;;;;;;;20.23;10.35;;;;;;;;;;10259122;28;20077;-60
2021/07/30 05:33:59;;;;;;;17.20;9.43;;;;;;;;;;10256915;28;20052;-60
2021/07/30 05:38:57;;;;;;;18.40;9.30;;;;;;;;;;10259169;28;20507;-60
2021/07/30 05:43:55;;;;;;;20.27;10.45;;;;;;;;;;10258761;28;20037;-60
2021/07/30 05:48:59;;;;;;;13.88;11.30;;;;;;;;;;10257846;28;20068;-60
2021/07/30 05:53:58;;;;;;;21.98;11.05;;;;;;;;;;10255915;28;20417;-60
2021/07/30 05:58:57;;;;;;;21.55;14.95;;;;;;;;;;10257705;28;20529;-60
2021/07/30 06:03:57;;;;;;;24.10;10.60;;;;;;;;;;10257903;28;20084;-60
2021/07/30 06:08:55;;;;;;;19.83;11.73;;;;;;;;;;10256873;28;20067;-60
2021/07/30 06:13:53;;;;;;;11.95;10.10;;;;;;;;;;10257724;28;20076;-60
2021/07/30 06:18:52;;;;;;;24.80;9.75;;;;;;;;;;10256024;28;20402;-60
2021/07/30 06:23:51;;;;;;;18.50;9.38;;;;;;;;;;10257040;28;20100;-60
2021/07/30 06:28:50;;;;;;;17.23;9.40;;;;;;;;;;10255413;28;20475;-60
2021/07/30 06:33:48;;;;;;;22.40;9.75;;;;;;;;;;10255163;28;20064;-60
2021/07/30 06:38:46;;;;;;;13.77;8.68;;;;;;;;;;10254081;28;20076;-60
2021/07/30 06:43:46;;;;;;;19.52;12.07;;;;;;;;;;10256926;28;20088;-61
2021/07/30 06:48:44;;;;;;;15.80;10.13;;;;;;;;;;10255144;28;20065;-60
2021/07/30 06:53:42;;;;;;;24.08;13.40;;;;;;;;;;10255001;28;20073;-60
2021/07/30 06:58:41;;;;;;;10.45;8.32;;;;;;;;;;10255724;28;20068;-60
2021/07/30 07:03:40;;;;;;;16.70;7.93;;;;;;;;;;10253259;28;20065;-60
2021/07/30 07:08:39;;;;;;;16.35;9.02;;;;;;;;;;10255212;28;20163;-60
2021/07/30 07:13:38;;;;;;;17.08;8.73;;;;;;;;;;10254737;28;20072;-61
2021/07/30 07:18:36;;;;;;;15.32;8.05;;;;;;;;;;10255474;28;20068;-60
2021/07/30 07:23:36;;;;;;;18.10;7.95;;;;;;;;;;10253240;28;20479;-60
2021/07/30 07:28:34;;;;;;;12.52;8.48;;;;;;;;;;10256066;28;20080;-60
2021/07/30 07:33:33;;;;;;;24.10;8.40;;;;;;;;;;10254098;28;20045;-60
2021/07/30 07:38:31;;;;;;;16.17;7.97;;;;;;;;;;10254293;28;20068;-61
2021/07/30 07:43:31;;;;;;;10.00;7.20;;;;;;;;;;10254350;28;20073;-60
2021/07/30 07:48:29;;;;;;;14.85;7.45;;;;;;;;;;10254742;28;20077;-60
2021/07/30 07:53:28;;;;;;;11.55;6.75;;;;;;;;;;10254045;28;20092;-60
2021/07/30 07:58:26;;;;;;;11.93;7.80;;;;;;;;;;10255196;28;20037;-60
2021/07/30 08:03:26;;;;;;;13.35;6.72;;;;;;;;;;10254068;28;20088;-60
2021/07/30 08:08:24;;;;;;;12.30;7.07;;;;;;;;;;10262878;28;20088;-60
2021/07/30 08:13:22;;;;;;;12.07;7.10;;;;;;;;;;10260940;28;20041;-61
2021/07/30 08:18:22;;;;;;;14.38;7.13;;;;;;;;;;10261297;28;20077;-60
2021/07/30 08:23:22;;;;;;;16.17;7.78;;;;;;;;;;10259775;28;20567;-60
2021/07/30 08:28:20;;;;;;;16.52;7.97;;;;;;;;;;10260128;28;20085;-60
2021/07/30 08:33:18;;;;;;;27.35;7.70;;;;;;;;;;10262031;28;20501;-60
2021/07/30 08:38:17;;;;;;;17.05;8.93;;;;;;;;;;10259998;28;20076;-60
2021/07/30 08:43:17;;;;;;;17.33;7.57;;;;;;;;;;10261199;28;20069;-60
2021/07/30 08:48:15;;;;;;;14.73;7.70;;;;;;;;;;10259082;28;20076;-60
2021/07/30 08:53:19;;;;;;;14.75;9.55;;;;;;;;;;10260684;28;20521;-60
2021/07/30 08:58:19;;;;;;;18.90;8.25;;;;;;;;;;10259404;28;20462;-59
2021/07/30 09:03:17;;;;;;;14.15;7.85;;;;;;;;;;10260982;28;20061;-60
2021/07/30 09:08:23;;;;;;;18.52;8.15;;;;;;;;;;10258934;28;20072;-60
2021/07/30 09:13:24;;;;;;;18.27;8.32;;;;;;;;;;10258375;28;20457;-60
2021/07/30 09:18:26;;;;;;;14.73;7.95;;;;;;;;;;10258083;28;20532;-61
2021/07/30 09:23:27;;;;;;;14.88;8.82;;;;;;;;;;10257799;28;20076;-60
2021/07/30 09:28:27;;;;;;;19.63;8.57;;;;;;;;;;10257191;28;20394;-60
2021/07/30 09:33:26;;;;;;;14.02;7.95;;;;;;;;;;10259628;28;20049;-60
2021/07/30 09:38:26;;;;;;;11.77;9.45;;;;;;;;;;10257505;28;20540;-61
2021/07/30 09:43:25;;;;;;;13.93;7.85;;;;;;;;;;10257673;28;20510;-60
2021/07/30 09:48:45;;;;;;;10.88;7.50;;;;;;;;;;10256242;28;20076;-60
2021/07/30 09:53:44;;;;;;;10.73;8.30;;;;;;;;;;10256621;28;20076;-60
2021/07/30 09:58:43;;;;;;;15.30;8.73;;;;;;;;;;10256735;28;20072;-61
2021/07/30 10:03:45;;;;;;;10.93;7.82;;;;;;;;;;10256824;28;20501;-60
2021/07/30 10:08:44;;;;;;;12.05;7.68;;;;;;;;;;10255456;28;20072;-60
2021/07/30 10:13:51;;;;;;;17.35;8.23;;;;;;;;;;10256364;28;20552;-61
2021/07/30 10:18:52;;;;;;;10.50;7.45;;;;;;;;;;10256925;28;20068;-60
2021/07/30 10:23:52;;;;;;;21.38;8.27;;;;;;;;;;10256565;28;20048;-61
2021/07/30 10:28:51;;;;;;;17.77;8.80;;;;;;;;;;10256132;28;20084;-61
2021/07/30 10:33:49;;;;;;;16.67;9.20;;;;;;;;;;10257178;28;20075;-60
2021/07/30 10:39:05;;;;;;;13.77;7.85;;;;;;;;;;10255663;28;20040;-60
2021/07/30 10:44:05;;;;;;;14.77;8.90;;;;;;;;;;10256240;28;20473;-60
2021/07/30 10:49:27;;;;;;;21.95;8.95;;;;;;;;;;10255920;28;20130;-60
2021/07/30 10:54:47;;;;;;;17.77;8.13;;;;;;;;;;10255477;28;20093;-60
2021/07/30 11:00:00;;;;;;;19.40;8.25;;;;;;;;;;10256292;28;20517;-59
2021/07/30 11:05:06;;;;;;;14.23;7.60;;;;;;;;;;10254812;28;20048;-60
2021/07/30 11:10:15;;;;;;;15.52;8.77;;;;;;;;;;10254125;28;20079;-60
2021/07/30 11:15:14;;;;;;;14.10;7.50;;;;;;;;;;10254599;28;20084;-60
2021/07/30 11:20:12;;;;;;;15.32;7.97;;;;;;;;;;10255269;28;20072;-59
2021/07/30 11:25:12;;;;;;;20.33;8.25;;;;;;;;;;10253276;28;20522;-59
2021/07/30 11:30:12;;;;;;;15.40;7.43;;;;;;;;;;10252967;28;20087;-59
2021/07/30 11:35:11;;;;;;;14.68;7.03;;;;;;;;;;10253555;28;20520;-59
2021/07/30 11:40:15;;;;;;;17.98;7.28;;;;;;;;;;10259368;28;20041;-61
2021/07/30 11:45:20;;;;;;;12.35;7.38;;;;;;;;;;10259849;28;20110;-61
2021/07/30 11:50:21;;;;;;;14.70;7.63;;;;;;;;;;10262161;28;20617;-61
2021/07/30 11:55:20;;;;;;;17.08;7.90;;;;;;;;;;10262986;28;20057;-61
2021/07/30 12:00:24;;;;;;;8.50;7.15;;;;;;;;;;10261220;28;20406;-61
2021/07/30 12:05:28;;;;;;;17.17;6.85;;;;;;;;;;10263005;28;20052;-61
2021/07/30 12:10:27;;;;;;;17.38;8.40;;;;;;;;;;10261077;28;20080;-59
2021/07/30 12:15:27;;;;;;;17.23;7.88;;;;;;;;;;10259852;28;20075;-59
2021/07/30 12:20:30;;;;;;;17.25;7.95;;;;;;;;;;10259398;28;20077;-59
2021/07/30 12:25:28;;;;;;;;;;;;;;;;;;10260431;28;20455;-59
2021/07/30 12:30:29;;;;;;;13.15;7.70;;;;;;;;;;10262035;28;19952;-59
2021/07/30 12:35:31;;;;;;;15.65;7.72;;;;;;;;;;10260060;28;20076;-59
2021/07/30 12:40:30;;;;;;;13.98;7.15;;;;;;;;;;10259778;28;20513;-59
2021/07/30 12:45:38;;;;;;;18.02;7.85;;;;;;;;;;10258861;28;20045;-59
2021/07/30 12:50:37;;;;;;;11.13;7.07;;;;;;;;;;10258678;28;20065;-59
2021/07/30 12:55:53;;;;;;;15.88;7.40;;;;;;;;;;10259826;28;20068;-59
2021/07/30 13:00:53;;;;;;;14.45;7.38;;;;;;;;;;10259248;28;20042;-59
2021/07/30 13:05:53;;;;;;;17.90;7.45;;;;;;;;;;10260468;28;20069;-59
2021/07/30 13:10:52;;;;;;;17.58;6.55;;;;;;;;;;10258354;28;20076;-59
2021/07/30 13:15:51;;;;;;;14.35;7.35;;;;;;;;;;10259554;28;20079;-59
2021/07/30 13:20:51;;;;;;;19.88;7.72;;;;;;;;;;10257188;28;20465;-59
2021/07/30 13:25:50;;;;;;;14.18;7.53;;;;;;;;;;10257842;28;20076;-59
2021/07/30 13:30:48;;;;;;;11.77;6.90;;;;;;;;;;10257110;28;20068;-59
2021/07/30 13:35:47;;;;;;;16.27;7.65;;;;;;;;;;10257650;28;20238;-58
2021/07/30 13:40:48;;;;;;;22.13;7.00;;;;;;;;;;10258919;28;20097;-59
2021/07/30 13:45:48;;;;;;;18.13;7.25;;;;;;;;;;10256569;28;20041;-59
2021/07/30 13:50:46;;;;;;;15.80;7.07;;;;;;;;;;10256846;28;20465;-59
2021/07/30 13:55:46;;;;;;;12.38;7.15;;;;;;;;;;10258178;28;20147;-59
2021/07/30 14:00:45;;;;;;;11.57;6.97;;;;;;;;;;10255213;28;20097;-59
2021/07/30 14:05:44;;;;;;;20.33;7.25;;;;;;;;;;10257762;28;20524;-59
2021/07/30 14:10:43;;;;;;;10.50;7.32;;;;;;;;;;10256227;28;20069;-59
2021/07/30 14:15:43;;;;;;;18.08;7.10;;;;;;;;;;10257456;28;20077;-60
2021/07/30 14:20:41;;;;;;;15.10;8.05;;;;;;;;;;10255756;28;20045;-60
2021/07/30 14:25:39;;;;;;;16.48;8.25;;;;;;;;;;10256119;28;20042;-58
2021/07/30 14:30:38;;;;;;;19.88;9.85;;;;;;;;;;10255985;28;20075;-59
2021/07/30 14:35:38;;;;;;;16.35;6.40;;;;;;;;;;10250203;28;20061;-59
2021/07/30 14:40:36;;;;;;;11.77;6.95;;;;;;;;;;10248013;28;20068;-58
2021/07/30 14:45:36;;;;;;;15.50;7.53;;;;;;;;;;10255901;28;20537;-60
2021/07/30 14:50:34;;;;;;;21.67;7.63;;;;;;;;;;10249639;28;20075;-58
2021/07/30 14:55:38;;;;;;;14.00;7.30;;;;;;;;;;10238265;28;20060;-59
2021/07/30 15:00:36;;;;;;;14.50;6.43;;;;;;;;;;10245576;28;20075;-59
2021/07/30 15:05:39;;;;;;;15.02;6.43;;;;;;;;;;10253920;28;20069;-58
2021/07/30 15:10:44;;;;;;;18.50;7.78;;;;;;;;;;10257781;28;20537;-58
2021/07/30 15:15:43;;;;;;;8.80;6.18;;;;;;;;;;10255609;28;20084;-59
2021/07/30 15:20:41;;;;;;;13.52;6.38;;;;;;;;;;10263027;28;20076;-59
2021/07/30 15:25:42;;;;;;;20.30;7.38;;;;;;;;;;10258418;28;20059;-59
2021/07/30 15:30:42;;;;;;;18.42;7.35;;;;;;;;;;10254527;28;20175;-59
2021/07/30 15:35:41;;;;;;;13.80;7.07;;;;;;;;;;10274837;28;20081;-60
2021/07/30 15:40:39;;;;;;;14.13;7.38;;;;;;;;;;10246342;28;20064;-59
2021/07/30 15:45:38;;;;;;;14.07;7.55;;;;;;;;;;10266312;28;20079;-60
2021/07/30 15:50:37;;;;;;;20.92;6.93;;;;;;;;;;10271864;28;20072;-58
2021/07/30 15:55:36;;;;;;;14.00;7.35;;;;;;;;;;10273028;28;20042;-59
2021/07/30 16:00:34;;;;;;;22.50;9.10;;;;;;;;;;10269332;28;20076;-60
2021/07/30 16:05:32;;;;;;;14.57;7.50;;;;;;;;;;10268243;28;20072;-60
2021/07/30 16:10:32;;;;;;;8.90;6.82;;;;;;;;;;10271104;28;20076;-60
2021/07/30 16:15:32;;;;;;;19.77;7.43;;;;;;;;;;10254013;28;20068;-59
2021/07/30 16:20:31;;;;;;;13.07;7.65;;;;;;;;;;10270304;28;20080;-58
2021/07/30 16:25:30;;;;;;;14.05;6.97;;;;;;;;;;10272792;28;20076;-59
2021/07/30 16:30:30;;;;;;;17.55;6.95;;;;;;;;;;10278345;28;20087;-60
2021/07/30 16:35:28;;;;;;;17.23;7.78;;;;;;;;;;10272693;28;20434;-59
2021/07/30 16:40:26;;;;;;;11.85;6.80;;;;;;;;;;10262911;28;20079;-59
2021/07/30 16:45:25;;;;;;;13.20;6.90;;;;;;;;;;10259209;28;20084;-60
2021/07/30 16:50:25;;;;;;;18.23;9.05;;;;;;;;;;10274320;28;20073;-60
2021/07/30 16:55:24;;;;;;;14.20;7.82;;;;;;;;;;10266052;28;20081;-60
2021/07/30 17:00:22;;;;;;;34.78;25.27;;;;;;;;;;10267858;28;20064;-60
2021/07/30 17:05:20;;;;;;;19.45;7.72;;;;;;;;;;10277727;28;20048;-60
2021/07/30 17:10:20;;;;;;;15.38;10.05;;;;;;;;;;10276055;28;20069;-60
2021/07/30 17:15:18;;;;;;;15.82;8.43;;;;;;;;;;10276155;28;20480;-60
2021/07/30 17:20:17;;;;;;;18.67;7.82;;;;;;;;;;10275781;28;20163;-60
2021/07/30 17:25:16;;;;;;;17.60;7.07;;;;;;;;;;10276164;28;20056;-58
2021/07/30 17:30:16;;;;;;;31.52;23.42;;;;;;;;;;10271776;28;20091;-58
2021/07/30 17:35:14;;;;;;;25.35;13.50;;;;;;;;;;10276789;28;20572;-60
2021/07/30 17:40:14;;;;;;;13.70;9.52;;;;;;;;;;10274352;28;20076;-59
2021/07/30 17:45:12;;;;;;;28.42;22.30;;;;;;;;;;10266118;28;20072;-59
2021/07/30 17:50:12;;;;;;;15.77;9.25;;;;;;;;;;10250171;28;20616;-57
2021/07/30 17:55:11;;;;;;;16.45;8.45;;;;;;;;;;10250288;28;20076;-58
2021/07/30 18:00:11;;;;;;;24.02;14.85;;;;;;;;;;10276700;28;20120;-59
2021/07/30 18:05:10;;;;;;;18.92;8.80;;;;;;;;;;10277855;28;20077;-60
2021/07/30 18:10:10;;;;;;;26.50;13.80;;;;;;;;;;10273570;28;20072;-60
2021/07/30 18:15:08;;;;;;;53.95;44.70;;;;;;;;;;10266924;28;20073;-59
2021/07/30 18:20:07;;;;;;;17.65;7.75;;;;;;;;;;10254671;28;20533;-60
2021/07/30 18:25:07;;;;;;;18.63;12.38;;;;;;;;;;10273119;28;20264;-59
2021/07/30 18:30:08;;;;;;;17.92;11.40;;;;;;;;;;10274966;28;20087;-60
2021/07/30 18:35:07;;;;;;;55.38;45.17;;;;;;;;;;10268155;28;20072;-59
2021/07/30 18:40:05;;;;;;;40.95;32.25;;;;;;;;;;10256408;28;20071;-59
2021/07/30 18:45:04;;;;;;;29.65;20.73;;;;;;;;;;10264401;28;20084;-59
2021/07/30 18:50:04;;;;;;;24.55;20.42;;;;;;;;;;10273374;28;20077;-59
2021/07/30 18:55:03;;;;;;;10.45;7.07;;;;;;;;;;10269198;28;20064;-60
2021/07/30 19:00:01;;;;;;;16.67;7.97;;;;;;;;;;10264865;28;20076;-60
2021/07/30 19:05:00;;;;;;;18.35;7.35;;;;;;;;;;10255591;28;20065;-60
2021/07/30 19:09:59;;;;;;;19.48;10.32;;;;;;;;;;10256165;28;20127;-59
2021/07/30 19:14:58;;;;;;;12.63;7.82;;;;;;;;;;10249516;28;20345;-59
2021/07/30 19:19:56;;;;;;;13.68;7.72;;;;;;;;;;10252393;28;20076;-60
2021/07/30 19:24:54;;;;;;;14.30;6.60;;;;;;;;;;10249995;28;20560;-59
2021/07/30 19:29:54;;;;;;;10.85;5.90;;;;;;;;;;10254388;28;20520;-59
2021/07/30 19:34:52;;;;;;;14.43;6.60;;;;;;;;;;10261874;28;20120;-60
2021/07/30 19:39:50;;;;;;;14.68;6.90;;;;;;;;;;10271334;28;20537;-60
2021/07/30 19:44:49;;;;;;;10.75;5.60;;;;;;;;;;10252748;28;20077;-60
2021/07/30 19:49:49;;;;;;;11.73;6.78;;;;;;;;;;10249309;28;20092;-59
2021/07/30 19:54:47;;;;;;;12.50;6.28;;;;;;;;;;10250387;28;20108;-60
2021/07/30 19:59:45;;;;;;;11.18;5.70;;;;;;;;;;10257692;28;20076;-60
2021/07/30 20:04:43;;;;;;;14.20;6.00;;;;;;;;;;10262030;28;20076;-58
2021/07/30 20:09:43;;;;;;;13.65;7.25;;;;;;;;;;10272077;28;20073;-59
2021/07/30 20:14:42;;;;;;;12.25;7.13;;;;;;;;;;10280947;28;20080;-58
2021/07/30 20:19:40;;;;;;;16.65;6.68;;;;;;;;;;10265396;28;20505;-59
2021/07/30 20:24:38;;;;;;;10.80;7.75;;;;;;;;;;10270221;28;20541;-59
2021/07/30 20:29:38;;;;;;;9.43;6.05;;;;;;;;;;10273425;28;20068;-59
2021/07/30 20:34:36;;;;;;;7.97;6.35;;;;;;;;;;10264449;28;20069;-58
2021/07/30 20:39:35;;;;;;;9.25;6.32;;;;;;;;;;10269211;28;20076;-59
2021/07/30 20:44:33;;;;;;;11.40;7.00;;;;;;;;;;10268918;28;20087;-58
2021/07/30 20:49:33;;;;;;;11.27;7.03;;;;;;;;;;10271209;28;20087;-59
2021/07/30 20:54:31;;;;;;;15.10;6.20;;;;;;;;;;10260472;28;20072;-59
2021/07/30 20:59:29;;;;;;;12.57;6.10;;;;;;;;;;10259576;28;20072;-59
2021/07/30 21:04:28;;;;;;;17.77;6.57;;;;;;;;;;10257947;28;20110;-60
2021/07/30 21:09:28;;;;;;;12.75;6.70;;;;;;;;;;10256163;28;20099;-58
2021/07/30 21:14:26;;;;;;;13.65;8.10;;;;;;;;;;10251143;28;20073;-59
2021/07/30 21:19:24;;;;;;;14.50;7.75;;;;;;;;;;10252969;28;20075;-59
2021/07/30 21:24:23;;;;;;;15.10;6.93;;;;;;;;;;10255293;28;20080;-60
2021/07/30 21:29:22;;;;;;;9.10;6.85;;;;;;;;;;10266482;28;20496;-59
2021/07/30 21:34:21;;;;;;;10.02;7.18;;;;;;;;;;10266353;28;20079;-58
2021/07/30 21:39:19;;;;;;;11.55;7.30;;;;;;;;;;10278304;28;20107;-59
2021/07/30 21:44:18;;;;;;;16.20;7.13;;;;;;;;;;10277897;28;20073;-60
2021/07/30 21:49:18;;;;;;;11.88;7.18;;;;;;;;;;10273740;28;20128;-60
2021/07/30 21:54:17;;;;;;;13.70;6.63;;;;;;;;;;10271957;28;20068;-58
2021/07/30 21:59:19;;;;;;;11.87;7.30;;;;;;;;;;10259130;28;20076;-58
2021/07/30 22:04:20;;;;;;;16.25;7.68;;;;;;;;;;10276689;28;20045;-59
2021/07/30 22:09:19;;;;;;;13.70;7.28;;;;;;;;;;10276317;28;20450;-59
2021/07/30 22:14:17;;;;;;;14.32;7.43;;;;;;;;;;10259276;28;20072;-58
2021/07/30 22:19:16;;;;;;;15.10;8.13;;;;;;;;;;10255051;28;20122;-58
2021/07/30 22:24:15;;;;;;;12.25;7.78;;;;;;;;;;10252966;28;20512;-58
2021/07/30 22:29:20;;;;;;;10.07;7.47;;;;;;;;;;10262063;28;20330;-59
2021/07/30 22:34:19;;;;;;;13.93;7.15;;;;;;;;;;10265074;28;20072;-58
2021/07/30 22:39:19;;;;;;;9.10;5.95;;;;;;;;;;10251140;28;20064;-59
2021/07/30 22:44:17;;;;;;;10.85;6.63;;;;;;;;;;10257792;28;20076;-59
2021/07/30 22:49:15;;;;;;;7.75;5.90;;;;;;;;;;10253497;28;20069;-59
2021/07/30 22:54:14;;;;;;;10.23;6.05;;;;;;;;;;10254621;28;20076;-59
2021/07/30 22:59:13;;;;;;;10.25;5.80;;;;;;;;;;10261317;28;20064;-59
2021/07/30 23:04:12;;;;;;;8.50;6.38;;;;;;;;;;10269067;28;20064;-59
2021/07/30 23:09:10;;;;;;;9.95;6.47;;;;;;;;;;10272082;28;20508;-59
2021/07/30 23:14:08;;;;;;;20.38;7.10;;;;;;;;;;10233741;28;20096;-60
2021/07/30 23:19:08;;;;;;;10.43;6.53;;;;;;;;;;10232315;28;20478;-60
2021/07/30 23:24:07;;;;;;;10.90;6.10;;;;;;;;;;10231041;28;20486;-61
2021/07/30 23:29:05;;;;;;;10.85;5.88;;;;;;;;;;10233341;28;20496;-61
2021/07/30 23:34:03;;;;;;;11.73;6.32;;;;;;;;;;10233466;28;20529;-61
2021/07/30 23:39:03;;;;;;;7.60;6.03;;;;;;;;;;10234281;28;20073;-60
2021/07/30 23:44:01;;;;;;;14.90;6.03;;;;;;;;;;10235524;28;20464;-61
2021/07/30 23:49:00;;;;;;;14.52;6.07;;;;;;;;;;10235146;28;20081;-61
2021/07/30 23:53:58;;;;;;;8.77;5.32;;;;;;;;;;10233772;28;20084;-60
2021/07/30 23:59:01;;;;;;;11.98;5.38;;;;;;;;;;10233830;28;20471;-61
